Time;durP1;ratioP1;P1;durP2;ratioP2;P2;SDS_P1;SDS_P2;PMS_P1;PMS_P2;Temp;Humidity;BMP_temperature;BMP_pressure;BME280_temperature;BME280_humidity;BME280_pressure;Samples;Min_cycle;Max_cycle;Signal;HPM_P1;HPM_P2
2022/08/26 00:02:39;;;;;;;24.10;21.60;;;25.90;64.20;;;;;;4745591;55;21047;-37
2022/08/26 00:07:40;;;;;;;23.38;21.08;;;25.90;64.30;;;;;;4812583;55;21090;-34
2022/08/26 00:12:41;;;;;;;23.15;20.73;;;25.90;64.20;;;;;;4735892;59;21079;-25
2022/08/26 00:17:42;;;;;;;23.70;21.30;;;25.90;64.80;;;;;;4781584;55;20995;-26
2022/08/26 00:22:42;;;;;;;23.77;21.27;;;25.90;64.30;;;;;;4763360;55;20999;-33
2022/08/26 00:27:44;;;;;;;22.37;20.08;;;25.80;64.10;;;;;;4736300;55;21525;-28
2022/08/26 00:32:45;;;;;;;22.85;20.45;;;25.90;64.20;;;;;;4754955;55;21537;-33
2022/08/26 00:37:45;;;;;;;22.62;20.33;;;25.90;64.20;;;;;;4742867;55;21027;-28
2022/08/26 00:42:46;;;;;;;23.02;20.65;;;25.90;64.20;;;;;;4753237;55;21004;-29
2022/08/26 00:48:00;;;;;;;22.33;20.12;;;25.90;64.20;;;;;;4746847;55;21075;-35
2022/08/26 00:53:05;;;;;;;22.62;20.42;;;25.90;64.20;;;;;;4752250;55;20992;-29
2022/08/26 00:58:07;;;;;;;22.37;20.10;;;25.80;64.10;;;;;;4737652;55;21070;-28
2022/08/26 01:03:09;;;;;;;22.92;20.50;;;25.90;64.10;;;;;;4786985;55;20988;-28
2022/08/26 01:08:11;;;;;;;22.92;20.62;;;25.90;64.20;;;;;;4748629;55;21012;-26
2022/08/26 01:13:12;;;;;;;21.65;19.45;;;25.90;64.20;;;;;;4757151;55;21044;-33
2022/08/26 01:18:14;;;;;;;23.33;20.35;;;25.90;64.10;;;;;;4824368;55;21007;-31
2022/08/26 01:23:15;;;;;;;21.67;19.52;;;25.80;64.10;;;;;;4752573;55;20971;-32
2022/08/26 01:28:22;;;;;;;22.62;20.10;;;25.90;64.10;;;;;;4771675;55;21051;-36
2022/08/26 01:33:34;;;;;;;21.85;19.50;;;25.90;64.10;;;;;;4777650;55;20984;-35
2022/08/26 01:38:35;;;;;;;22.17;19.92;;;25.90;64.10;;;;;;4761553;55;21026;-37
2022/08/26 01:43:38;;;;;;;21.55;19.40;;;25.90;64.10;;;;;;4745664;55;21011;-36
2022/08/26 01:48:41;;;;;;;21.73;19.52;;;25.80;64.00;;;;;;4750590;55;21058;-27
2022/08/26 01:53:43;;;;;;;21.25;19.05;;;25.80;64.00;;;;;;4756458;55;20991;-33
2022/08/26 01:58:57;;;;;;;20.98;18.75;;;25.80;64.00;;;;;;4748092;55;21067;-33
2022/08/26 02:04:08;;;;;;;20.85;18.25;;;25.90;64.10;;;;;;4736153;59;20984;-27
2022/08/26 02:09:11;;;;;;;19.98;18.00;;;25.80;64.00;;;;;;4761515;55;21063;-27
2022/08/26 02:14:25;;;;;;;20.60;18.40;;;25.90;64.10;;;;;;4756768;55;21051;-28
2022/08/26 02:19:31;;;;;;;19.85;17.83;;;25.80;64.00;;;;;;4771410;55;21545;-27
2022/08/26 02:26:10;;;;;;;19.08;17.27;;;25.80;64.00;;;;;;4786608;55;21010;-26
2022/08/26 02:31:11;;;;;;;19.75;17.85;;;25.80;64.00;;;;;;4778286;55;21087;-32
2022/08/26 02:36:11;;;;;;;20.35;17.85;;;25.80;63.90;;;;;;4787129;55;21059;-34
2022/08/26 02:41:12;;;;;;;19.25;17.45;;;25.80;63.90;;;;;;4780585;55;21035;-36
2022/08/26 02:46:13;;;;;;;19.52;17.58;;;25.80;63.90;;;;;;4768968;55;21477;-26
2022/08/26 02:51:14;;;;;;;19.48;17.50;;;25.80;63.90;;;;;;4758918;55;21015;-33
2022/08/26 02:56:15;;;;;;;18.67;16.87;;;25.80;63.90;;;;;;4760603;55;20993;-37
2022/08/26 03:01:32;;;;;;;19.08;17.17;;;25.80;63.80;;;;;;4741496;55;21056;-30
2022/08/26 03:06:33;;;;;;;19.08;17.12;;;25.80;63.80;;;;;;4753257;55;21011;-32
2022/08/26 03:11:34;;;;;;;18.40;16.60;;;25.80;63.80;;;;;;4771234;55;21150;-33
2022/08/26 03:16:36;;;;;;;18.95;17.05;;;25.80;63.80;;;;;;4745775;55;21526;-32
2022/08/26 03:21:38;;;;;;;19.05;17.15;;;25.80;63.80;;;;;;4736218;59;21039;-35
2022/08/26 03:26:39;;;;;;;17.83;16.12;;;25.80;63.80;;;;;;4737119;59;20992;-35
2022/08/26 03:31:44;;;;;;;20.75;16.40;;;25.80;63.80;;;;;;4766393;55;21489;-36
2022/08/26 03:36:45;;;;;;;18.60;16.80;;;25.80;63.70;;;;;;4761589;55;21003;-29
2022/08/26 03:41:46;;;;;;;17.75;15.93;;;25.80;63.70;;;;;;4796722;55;21031;-31
2022/08/26 03:46:47;;;;;;;19.15;17.15;;;25.80;63.70;;;;;;4737464;55;21015;-26
2022/08/26 03:51:48;;;;;;;18.83;17.00;;;25.80;63.70;;;;;;4736046;59;21068;-26
2022/08/26 03:56:49;;;;;;;17.05;15.45;;;25.80;63.70;;;;;;4736722;55;20987;-28
2022/08/26 04:01:49;;;;;;;18.10;16.20;;;25.80;63.60;;;;;;4769003;55;21007;-33
2022/08/26 04:06:57;;;;;;;17.55;15.75;;;25.80;63.60;;;;;;4759131;55;21043;-33
2022/08/26 04:11:58;;;;;;;18.40;16.17;;;25.80;63.60;;;;;;4736098;59;21995;-29
2022/08/26 04:16:58;;;;;;;17.60;15.70;;;25.80;64.30;;;;;;4876124;55;21019;-31
2022/08/26 04:21:59;;;;;;;18.65;15.93;;;25.80;63.60;;;;;;4736183;59;21004;-38
2022/08/26 04:27:02;;;;;;;16.67;14.70;;;25.80;63.60;;;;;;4778884;55;20991;-29
2022/08/26 04:32:03;;;;;;;17.40;15.70;;;25.80;63.50;;;;;;4752072;55;21706;-37
2022/08/26 04:37:05;;;;;;;17.65;15.85;;;25.80;63.50;;;;;;4753267;55;21087;-28
2022/08/26 04:42:06;;;;;;;17.80;15.90;;;25.80;63.50;;;;;;4760195;55;21550;-33
2022/08/26 04:47:06;;;;;;;17.05;15.40;;;25.80;63.50;;;;;;4778460;55;21003;-28
2022/08/26 04:52:07;;;;;;;16.90;15.15;;;25.80;63.40;;;;;;4744119;55;21083;-28
2022/08/26 04:57:08;;;;;;;15.82;14.32;;;25.80;63.40;;;;;;4753701;55;21043;-32
2022/08/26 05:02:09;;;;;;;16.33;14.60;;;25.80;63.40;;;;;;4753511;55;21031;-29
2022/08/26 05:07:10;;;;;;;18.23;15.05;;;25.80;63.40;;;;;;4735975;59;21043;-28
2022/08/26 05:12:11;;;;;;;17.08;15.38;;;25.80;63.40;;;;;;4762068;55;21027;-30
2022/08/26 05:17:11;;;;;;;17.02;15.32;;;25.80;63.30;;;;;;4779233;55;21043;-30
2022/08/26 05:22:13;;;;;;;16.48;14.87;;;25.80;63.30;;;;;;4780676;55;20991;-32
2022/08/26 05:27:14;;;;;;;16.37;14.77;;;25.80;63.30;;;;;;4735237;59;21476;-28
2022/08/26 05:32:15;;;;;;;16.77;14.98;;;25.80;63.30;;;;;;4773837;55;21051;-30
2022/08/26 05:37:15;;;;;;;16.67;14.73;;;25.80;63.20;;;;;;4746455;55;20991;-34
2022/08/26 05:42:18;;;;;;;16.10;14.60;;;25.70;63.20;;;;;;4736964;59;20984;-25
2022/08/26 05:47:19;;;;;;;16.50;14.68;;;25.80;63.20;;;;;;4746958;55;22117;-29
2022/08/26 05:52:20;;;;;;;17.15;15.35;;;25.80;63.20;;;;;;4760915;55;21032;-33
2022/08/26 05:57:21;;;;;;;16.62;14.93;;;25.80;63.20;;;;;;4754806;55;21079;-30
2022/08/26 06:02:22;;;;;;;15.80;14.25;;;25.80;63.20;;;;;;4753491;55;21040;-30
2022/08/26 06:08:09;;;;;;;16.75;15.05;;;25.80;63.20;;;;;;4735613;59;21054;-30
2022/08/26 06:13:11;;;;;;;15.50;14.00;;;25.80;63.20;;;;;;4766723;55;21103;-27
2022/08/26 06:18:14;;;;;;;15.93;14.32;;;25.80;63.20;;;;;;4782663;55;20979;-28
2022/08/26 06:28:36;;;;;;;18.52;14.75;;;25.80;63.20;;;;;;4736568;55;21011;-27
2022/08/26 06:33:38;;;;;;;16.20;14.52;;;25.80;63.20;;;;;;4746002;55;21526;-25
2022/08/26 06:38:38;;;;;;;16.10;14.40;;;25.70;63.10;;;;;;4758772;55;21372;-34
2022/08/26 06:43:39;;;;;;;16.80;15.13;;;25.80;63.20;;;;;;4744111;55;21031;-30
2022/08/26 06:48:40;;;;;;;15.57;14.07;;;25.80;63.20;;;;;;4771942;55;20991;-28
2022/08/26 06:53:45;;;;;;;16.62;14.85;;;25.80;63.20;;;;;;4777258;55;21019;-28
2022/08/26 06:58:46;;;;;;;21.87;18.10;;;25.80;63.20;;;;;;4786334;55;21564;-35
2022/08/26 07:03:49;;;;;;;27.50;21.90;;;25.80;64.30;;;;;;4761405;55;21039;-35
2022/08/26 07:08:53;;;;;;;27.75;20.92;;;25.70;65.30;;;;;;4804138;55;21518;-33
2022/08/26 07:13:54;;;;;;;27.25;20.37;;;25.70;65.70;;;;;;4736119;59;21556;-27
2022/08/26 07:18:54;;;;;;;28.15;20.00;;;25.70;65.70;;;;;;4736516;59;20995;-28
2022/08/26 07:23:55;;;;;;;30.95;21.83;;;25.70;65.80;;;;;;4747000;55;21537;-32
2022/08/26 07:28:58;;;;;;;29.05;23.15;;;25.80;65.90;;;;;;4750163;55;21060;-33
2022/08/26 07:33:59;;;;;;;31.12;24.50;;;25.80;65.90;;;;;;4768009;55;21056;-34
2022/08/26 07:39:00;;;;;;;34.47;24.55;;;25.70;66.00;;;;;;4744712;55;21055;-27
2022/08/26 07:44:00;;;;;;;33.90;25.67;;;25.80;66.00;;;;;;4760881;55;21031;-26
2022/08/26 07:49:01;;;;;;;32.88;25.95;;;25.80;65.90;;;;;;4753036;55;21000;-27
2022/08/26 07:54:03;;;;;;;44.00;30.15;;;25.80;65.90;;;;;;4736674;59;21060;-27
2022/08/26 07:59:04;;;;;;;44.65;32.35;;;25.80;66.00;;;;;;4760570;55;21161;-29
2022/08/26 08:04:06;;;;;;;48.95;34.22;;;25.80;66.10;;;;;;4777773;55;21055;-28
2022/08/26 08:09:06;;;;;;;50.53;36.53;;;25.80;66.10;;;;;;4756617;55;21586;-33
2022/08/26 08:14:08;;;;;;;55.72;40.20;;;25.90;66.30;;;;;;4764058;55;21484;-28
2022/08/26 08:19:08;;;;;;;53.38;40.58;;;25.90;66.70;;;;;;4751677;55;21481;-27
2022/08/26 08:24:10;;;;;;;54.45;40.70;;;25.90;66.30;;;;;;4760054;55;21144;-28
2022/08/26 08:29:10;;;;;;;49.25;40.08;;;26.00;66.20;;;;;;4738141;55;21395;-27
2022/08/26 08:34:11;;;;;;;58.03;39.55;;;26.00;66.00;;;;;;4762616;55;21087;-29
2022/08/26 08:39:13;;;;;;;54.67;38.80;;;26.00;65.80;;;;;;4736584;59;21542;-27
2022/08/26 08:44:21;;;;;;;47.10;36.30;;;26.00;65.70;;;;;;4736972;59;21067;-27
2022/08/26 08:49:24;;;;;;;45.42;36.17;;;26.00;65.60;;;;;;4746944;55;21557;-33
2022/08/26 08:54:25;;;;;;;49.50;37.83;;;26.10;65.50;;;;;;4775654;55;21628;-29
2022/08/26 08:59:32;;;;;;;50.08;39.60;;;26.10;65.60;;;;;;4770954;55;21474;-32
2022/08/26 09:08:10;;;;;;;60.00;44.70;;;26.10;65.70;;;;;;4736199;59;21045;-29
2022/08/26 09:13:16;;;;;;;56.70;43.47;;;26.10;66.10;;;;;;4744856;55;21131;-36
2022/08/26 09:18:39;;;;;;;58.53;43.13;;;26.20;66.10;;;;;;4755026;55;21063;-36
2022/08/26 09:23:41;;;;;;;54.10;43.72;;;26.20;66.30;;;;;;4758160;55;21004;-35
2022/08/26 09:28:46;;;;;;;55.42;45.28;;;26.20;66.30;;;;;;4736341;59;20988;-28
2022/08/26 09:33:47;;;;;;;64.57;47.75;;;26.20;66.30;;;;;;4735928;55;21004;-31
2022/08/26 09:38:52;;;;;;;61.67;45.67;;;26.20;66.30;;;;;;4744283;55;21054;-35
2022/08/26 09:44:14;;;;;;;67.05;49.30;;;26.20;66.40;;;;;;4768393;55;21522;-37
2022/08/26 09:49:28;;;;;;;61.92;49.40;;;26.30;66.70;;;;;;4773509;55;21525;-36
2022/08/26 09:54:29;;;;;;;64.62;48.42;;;26.30;66.70;;;;;;4739610;55;21108;-27
2022/08/26 09:59:30;;;;;;;63.70;47.33;;;26.30;66.90;;;;;;4784861;55;21004;-27
2022/08/26 10:04:31;;;;;;;59.38;44.67;;;26.30;66.90;;;;;;4760552;55;20976;-30
2022/08/26 10:09:37;;;;;;;59.80;44.95;;;26.40;67.00;;;;;;4744092;55;21502;-29
2022/08/26 10:14:46;;;;;;;59.95;46.03;;;26.40;67.00;;;;;;4742943;55;21039;-29
2022/08/26 10:20:33;;;;;;;56.78;44.65;;;26.40;66.90;;;;;;4740526;55;21019;-31
2022/08/26 10:25:56;;;;;;;59.65;44.83;;;26.40;67.50;;;;;;4743369;55;21481;-31
2022/08/26 10:32:01;;;;;;;60.38;46.22;;;26.40;66.80;;;;;;4758322;55;21465;-26
2022/08/26 10:37:10;;;;;;;52.80;42.53;;;26.40;66.70;;;;;;4770603;55;21462;-27
2022/08/26 10:43:36;;;;;;;52.17;42.67;;;26.50;66.80;;;;;;4736825;59;21035;-28
2022/08/26 10:48:52;;;;;;;54.95;42.13;;;26.50;66.70;;;;;;4760992;55;21095;-27
2022/08/26 10:54:08;;;;;;;52.60;41.40;;;26.50;66.70;;;;;;4735694;59;20991;-28
2022/08/26 11:07:28;;;;;;;52.00;39.95;;;26.50;66.70;;;;;;4736086;55;21019;-27
2022/08/26 11:13:03;;;;;;;51.75;41.15;;;26.50;66.60;;;;;;4738739;55;21130;-26
2022/08/26 11:18:10;;;;;;;52.30;41.05;;;26.50;66.50;;;;;;4736526;59;21042;-27
2022/08/26 11:23:56;;;;;;;48.42;39.20;;;26.50;66.40;;;;;;4739780;55;20999;-28
2022/08/26 11:28:57;;;;;;;;;;;26.40;66.30;;;;;;4739558;59;21007;-27
2022/08/26 11:34:05;;;;;;;47.25;40.38;;;26.50;66.20;;;;;;4754523;55;20101;-27
2022/08/26 11:40:10;;;;;;;46.30;39.55;;;26.40;66.10;;;;;;4736335;59;21489;-27
2022/08/26 11:46:21;;;;;;;48.67;39.85;;;26.50;66.10;;;;;;4794283;55;21067;-27
2022/08/26 11:51:23;;;;;;;48.50;38.20;;;26.50;66.00;;;;;;4735533;59;21071;-27
2022/08/26 11:56:32;;;;;;;47.22;38.10;;;26.40;65.90;;;;;;4763733;55;21561;-29
2022/08/26 12:01:36;;;;;;;48.40;37.40;;;26.50;66.00;;;;;;4736544;55;21616;-28
2022/08/26 12:06:47;;;;;;;51.67;37.72;;;26.50;65.90;;;;;;4770382;55;21486;-27
2022/08/26 12:11:48;;;;;;;47.10;38.63;;;26.50;65.90;;;;;;4747729;55;21577;-28
2022/08/26 12:16:50;;;;;;;46.95;39.83;;;26.40;65.80;;;;;;4783926;55;21003;-27
2022/08/26 12:22:41;;;;;;;49.45;39.17;;;26.50;66.40;;;;;;4756946;55;20980;-27
2022/08/26 12:27:44;;;;;;;47.97;39.33;;;26.50;65.80;;;;;;4752136;55;20987;-28
2022/08/26 12:32:51;;;;;;;47.17;39.25;;;26.50;65.80;;;;;;4741231;55;22213;-28
2022/08/26 12:37:54;;;;;;;48.17;38.22;;;26.50;65.70;;;;;;4735923;59;21711;-27
2022/08/26 12:42:58;;;;;;;47.75;39.65;;;26.50;65.70;;;;;;4736180;59;21068;-28
2022/08/26 12:48:37;;;;;;;48.80;37.75;;;26.50;65.60;;;;;;4763646;55;21011;-26
2022/08/26 12:53:42;;;;;;;43.00;36.30;;;26.50;66.20;;;;;;4735522;59;21573;-27
2022/08/26 12:58:43;;;;;;;41.50;34.80;;;26.50;65.50;;;;;;4747548;55;21077;-28
2022/08/26 13:03:44;;;;;;;46.20;34.75;;;26.50;65.50;;;;;;4735938;59;21048;-29
2022/08/26 13:09:30;;;;;;;48.85;35.75;;;26.50;65.80;;;;;;4810658;55;21126;-28
2022/08/26 13:14:31;;;;;;;;;;;26.60;66.20;;;;;;4780459;55;21138;-28
2022/08/26 13:19:32;;;;;;;47.38;32.00;;;26.60;66.00;;;;;;4736668;59;20160;-30
2022/08/26 13:24:39;;;;;;;45.10;29.60;;;26.70;65.90;;;;;;4738538;55;21031;-28
2022/08/26 13:29:42;;;;;;;42.72;31.75;;;26.70;65.40;;;;;;4742009;55;21047;-27
2022/08/26 13:34:47;;;;;;;46.63;32.15;;;26.80;65.00;;;;;;4758989;55;21059;-28
2022/08/26 13:39:49;;;;;;;43.45;30.73;;;26.80;64.90;;;;;;4736420;59;20980;-33
2022/08/26 13:44:56;;;;;;;44.53;29.42;;;26.80;64.80;;;;;;4756261;55;21018;-28
2022/08/26 13:49:57;;;;;;;41.65;27.70;;;26.80;64.50;;;;;;4812071;55;21509;-27
2022/08/26 13:54:59;;;;;;;38.05;28.25;;;26.80;64.80;;;;;;4735410;59;21569;-27
2022/08/26 14:00:00;;;;;;;48.42;29.83;;;26.70;64.90;;;;;;4750512;55;21028;-29
2022/08/26 14:05:01;;;;;;;44.03;28.33;;;26.60;65.00;;;;;;4742066;55;21057;-27
2022/08/26 14:10:02;;;;;;;36.25;28.02;;;26.60;65.10;;;;;;4742189;55;21521;-28
2022/08/26 14:15:04;;;;;;;38.58;29.10;;;26.60;65.20;;;;;;4755808;55;21042;-30
2022/08/26 14:20:07;;;;;;;40.60;28.60;;;26.60;65.30;;;;;;4777792;55;21127;-27
2022/08/26 14:25:13;;;;;;;37.80;27.98;;;26.50;65.20;;;;;;4748544;55;21034;-29
2022/08/26 14:30:15;;;;;;;33.73;26.47;;;26.50;65.30;;;;;;4738270;55;20972;-28
2022/08/26 14:35:19;;;;;;;34.63;27.50;;;26.50;65.40;;;;;;4752755;55;21011;-29
2022/08/26 14:40:22;;;;;;;37.70;27.80;;;26.50;65.40;;;;;;4776883;55;21055;-27
2022/08/26 14:45:26;;;;;;;35.85;28.45;;;26.50;65.40;;;;;;4737037;55;21031;-28
2022/08/26 14:50:26;;;;;;;30.30;26.08;;;26.40;65.30;;;;;;4766748;55;20983;-27
2022/08/26 14:55:29;;;;;;;31.17;25.62;;;26.40;65.40;;;;;;4760328;55;21008;-28
2022/08/26 15:00:31;;;;;;;31.67;26.45;;;26.40;65.30;;;;;;4762391;55;21607;-26
2022/08/26 15:05:32;;;;;;;31.30;26.70;;;26.40;65.40;;;;;;4775811;55;21051;-27
2022/08/26 15:10:33;;;;;;;35.10;27.85;;;26.40;65.40;;;;;;4754096;55;21505;-28
2022/08/26 15:15:34;;;;;;;32.83;28.00;;;26.40;65.40;;;;;;4754024;55;21059;-28
2022/08/26 15:20:35;;;;;;;32.65;26.80;;;26.40;65.40;;;;;;4740497;55;20948;-27
2022/08/26 15:25:35;;;;;;;32.35;26.12;;;26.40;65.40;;;;;;4741416;55;22248;-29
2022/08/26 15:30:37;;;;;;;33.80;27.73;;;26.40;65.40;;;;;;4736114;59;20980;-29
2022/08/26 15:35:38;;;;;;;30.98;26.12;;;26.30;65.30;;;;;;4735716;55;21011;-26
2022/08/26 15:40:38;;;;;;;31.25;27.23;;;26.40;65.30;;;;;;4766557;55;20980;-28
2022/08/26 15:45:39;;;;;;;30.23;25.73;;;26.30;65.30;;;;;;4742568;55;21007;-26
2022/08/26 15:50:59;;;;;;;33.85;26.17;;;26.30;65.30;;;;;;4784725;55;21151;-26
2022/08/26 15:56:00;;;;;;;32.58;26.67;;;26.30;65.20;;;;;;4757912;55;21446;-27
2022/08/26 16:01:04;;;;;;;30.05;26.25;;;26.30;65.20;;;;;;4763584;55;21043;-27
2022/08/26 16:06:05;;;;;;;31.40;26.70;;;26.30;65.20;;;;;;4759965;55;21047;-27
2022/08/26 16:11:06;;;;;;;31.52;26.45;;;26.30;65.30;;;;;;4810870;55;21019;-26
2022/08/26 16:16:07;;;;;;;30.37;26.37;;;26.30;65.20;;;;;;4743144;55;21465;-26
2022/08/26 16:21:13;;;;;;;29.35;25.23;;;26.30;65.10;;;;;;4758377;55;20999;-27
2022/08/26 16:26:17;;;;;;;33.00;26.00;;;26.30;65.10;;;;;;4739760;55;21540;-27
2022/08/26 16:31:18;;;;;;;29.73;26.48;;;26.30;65.10;;;;;;4751621;55;20988;-28
2022/08/26 16:36:19;;;;;;;29.55;25.77;;;26.30;65.10;;;;;;4749744;55;21048;-26
2022/08/26 16:41:21;;;;;;;29.45;26.25;;;26.30;65.10;;;;;;4736362;59;21463;-36
2022/08/26 16:46:25;;;;;;;28.92;25.45;;;26.30;65.20;;;;;;4821238;55;21003;-28
2022/08/26 16:51:27;;;;;;;27.75;24.75;;;26.30;65.10;;;;;;4742182;55;21497;-28
2022/08/26 16:56:30;;;;;;;29.52;25.67;;;26.30;65.10;;;;;;4792717;55;21376;-31
2022/08/26 17:01:31;;;;;;;29.73;26.52;;;26.30;65.10;;;;;;4738126;55;21564;-26
2022/08/26 17:06:32;;;;;;;29.42;26.12;;;26.30;65.00;;;;;;4759051;55;21028;-30
2022/08/26 17:11:34;;;;;;;30.45;26.35;;;26.30;65.10;;;;;;4736631;55;21479;-29
2022/08/26 17:16:35;;;;;;;28.15;25.15;;;26.30;65.10;;;;;;4766555;55;21484;-28
2022/08/26 17:21:38;;;;;;;27.95;25.05;;;26.30;65.10;;;;;;4736324;59;21048;-27
2022/08/26 17:26:43;;;;;;;28.33;25.30;;;26.30;65.10;;;;;;4736439;59;21080;-25
2022/08/26 17:31:43;;;;;;;28.73;25.65;;;26.30;65.00;;;;;;4754765;55;22053;-27
2022/08/26 17:36:44;;;;;;;29.87;25.77;;;26.30;65.10;;;;;;4735334;59;21028;-29
2022/08/26 17:41:45;;;;;;;29.00;25.23;;;26.30;65.00;;;;;;4740052;55;21465;-27
2022/08/26 17:46:49;;;;;;;28.58;25.42;;;26.30;65.00;;;;;;4736957;59;21549;-26
2022/08/26 17:51:49;;;;;;;29.80;26.60;;;26.30;65.00;;;;;;4803682;55;21015;-26
2022/08/26 17:56:50;;;;;;;29.35;26.15;;;26.30;65.00;;;;;;4751352;55;21395;-28
2022/08/26 18:01:52;;;;;;;27.10;24.20;;;26.30;65.00;;;;;;4760822;55;21481;-28
2022/08/26 18:06:56;;;;;;;28.48;25.58;;;26.30;65.10;;;;;;4770293;55;21640;-29
2022/08/26 18:11:59;;;;;;;27.98;24.92;;;26.30;65.10;;;;;;4736393;55;21078;-28
2022/08/26 18:16:59;;;;;;;28.23;25.20;;;26.30;65.00;;;;;;4755723;55;20988;-30
2022/08/26 18:22:00;;;;;;;30.02;25.45;;;26.30;65.00;;;;;;4735739;59;21051;-27
2022/08/26 18:27:01;;;;;;;29.12;25.42;;;26.30;65.00;;;;;;4735965;59;20995;-28
2022/08/26 18:32:02;;;;;;;28.70;25.75;;;26.30;65.10;;;;;;4745892;55;21477;-27
2022/08/26 18:37:03;;;;;;;27.45;24.55;;;26.30;65.10;;;;;;4735829;59;21011;-27
2022/08/26 18:42:05;;;;;;;28.15;24.87;;;26.30;65.10;;;;;;4746775;55;21486;-32
2022/08/26 18:47:06;;;;;;;27.98;25.00;;;26.30;65.10;;;;;;4744271;55;20984;-29
2022/08/26 18:52:07;;;;;;;28.33;25.33;;;26.30;65.10;;;;;;4736983;55;21000;-29
2022/08/26 18:57:08;;;;;;;27.13;24.33;;;26.30;65.10;;;;;;4766418;55;21469;-29
2022/08/26 19:02:09;;;;;;;27.80;24.42;;;26.30;65.10;;;;;;4774958;55;20976;-28
2022/08/26 19:07:09;;;;;;;26.65;23.38;;;26.30;65.10;;;;;;4735276;59;21063;-26
2022/08/26 19:12:11;;;;;;;26.15;23.35;;;26.30;65.20;;;;;;4742844;55;21000;-29
2022/08/26 19:17:13;;;;;;;27.33;24.48;;;26.30;65.10;;;;;;4737144;59;20996;-28
2022/08/26 19:22:14;;;;;;;28.02;23.92;;;26.30;65.20;;;;;;4735570;59;21844;-29
2022/08/26 19:27:15;;;;;;;27.55;24.55;;;26.30;65.20;;;;;;4745435;55;21051;-27
2022/08/26 19:32:16;;;;;;;26.75;23.48;;;26.20;65.10;;;;;;4748916;55;21031;-30
2022/08/26 19:37:18;;;;;;;27.20;24.40;;;26.30;65.30;;;;;;4791789;55;21411;-32
2022/08/26 19:42:19;;;;;;;25.83;23.23;;;26.30;65.30;;;;;;4759787;55;21022;-28
2022/08/26 19:47:20;;;;;;;25.73;23.08;;;26.20;65.20;;;;;;4743236;55;21019;-30
2022/08/26 19:52:23;;;;;;;27.37;24.45;;;26.20;65.20;;;;;;4744675;55;20996;-27
2022/08/26 19:57:23;;;;;;;25.20;22.58;;;26.30;65.30;;;;;;4736647;59;21550;-29
2022/08/26 20:02:24;;;;;;;26.75;23.95;;;26.20;65.30;;;;;;4736237;59;21106;-28
2022/08/26 20:07:25;;;;;;;25.90;23.20;;;26.20;65.20;;;;;;4742464;55;21056;-27
2022/08/26 20:12:26;;;;;;;25.30;22.65;;;26.20;65.30;;;;;;4769818;55;21007;-27
2022/08/26 20:17:27;;;;;;;26.12;23.42;;;26.20;65.30;;;;;;4742187;55;21517;-30
2022/08/26 20:22:28;;;;;;;25.30;22.27;;;26.20;65.30;;;;;;4785576;55;20988;-38
2022/08/26 20:27:29;;;;;;;26.10;23.42;;;26.20;65.30;;;;;;4736763;55;21454;-34
2022/08/26 20:32:29;;;;;;;26.23;23.40;;;26.20;65.30;;;;;;4776046;55;21015;-27
2022/08/26 20:37:30;;;;;;;26.17;23.38;;;26.20;65.30;;;;;;4736401;59;21067;-26
2022/08/26 20:42:31;;;;;;;25.40;22.75;;;26.20;65.30;;;;;;4755542;55;20999;-32
2022/08/26 20:47:32;;;;;;;24.83;22.30;;;26.20;65.30;;;;;;4736270;59;21522;-28
2022/08/26 20:52:33;;;;;;;24.67;21.62;;;26.20;65.40;;;;;;4740877;55;21034;-29
2022/08/26 20:57:36;;;;;;;24.52;21.95;;;26.20;65.40;;;;;;4753804;55;20991;-28
2022/08/26 21:02:36;;;;;;;24.70;22.10;;;26.20;65.40;;;;;;4736658;59;21494;-28
2022/08/26 21:07:40;;;;;;;24.00;21.50;;;26.20;65.40;;;;;;4735739;59;21023;-34
2022/08/26 21:12:41;;;;;;;24.83;22.23;;;26.20;65.40;;;;;;4741121;55;21493;-36
2022/08/26 21:17:42;;;;;;;23.52;21.12;;;26.20;65.50;;;;;;4745128;55;21043;-26
2022/08/26 21:22:43;;;;;;;23.92;21.45;;;26.20;65.40;;;;;;4735944;59;20992;-28
2022/08/26 21:27:43;;;;;;;23.52;20.98;;;26.20;65.40;;;;;;4769036;55;21466;-29
2022/08/26 21:32:44;;;;;;;23.48;21.00;;;26.20;65.40;;;;;;4817844;55;21513;-31
2022/08/26 21:37:46;;;;;;;25.00;21.05;;;26.20;65.40;;;;;;4769444;55;20971;-34
2022/08/26 21:42:47;;;;;;;22.67;20.27;;;26.20;65.50;;;;;;4748349;55;21530;-36
2022/08/26 21:47:48;;;;;;;23.62;21.05;;;26.20;65.50;;;;;;4739541;55;21003;-26
2022/08/26 21:52:48;;;;;;;23.58;21.08;;;26.20;65.50;;;;;;4781092;55;20979;-32
2022/08/26 21:57:49;;;;;;;23.35;20.55;;;26.20;65.50;;;;;;4770034;55;21039;-34
2022/08/26 22:02:50;;;;;;;23.92;20.00;;;26.20;65.50;;;;;;4743977;55;20999;-30
2022/08/26 22:07:51;;;;;;;22.62;20.25;;;26.20;66.10;;;;;;4745312;55;21031;-33
2022/08/26 22:12:51;;;;;;;22.67;20.37;;;26.20;65.40;;;;;;4746283;55;21011;-28
2022/08/26 22:17:52;;;;;;;21.35;18.83;;;26.20;65.50;;;;;;4736134;59;21931;-27
2022/08/26 22:22:53;;;;;;;22.70;20.33;;;26.20;65.50;;;;;;4770853;55;21758;-29
2022/08/26 22:27:54;;;;;;;21.77;19.42;;;26.20;65.40;;;;;;4751046;55;20980;-31
2022/08/26 22:32:55;;;;;;;21.67;19.35;;;26.20;65.50;;;;;;4744054;55;21059;-27
2022/08/26 22:37:57;;;;;;;21.37;19.17;;;26.20;65.50;;;;;;4812775;55;21476;-26
2022/08/26 22:42:58;;;;;;;22.08;19.87;;;26.20;65.50;;;;;;4751081;55;21497;-31
2022/08/26 22:48:03;;;;;;;21.73;19.58;;;26.20;65.40;;;;;;4742086;55;20990;-29
2022/08/26 22:53:04;;;;;;;20.95;18.77;;;26.20;65.50;;;;;;4754146;55;21008;-32
2022/08/26 22:58:06;;;;;;;22.05;19.75;;;26.20;65.40;;;;;;4741269;55;20999;-33
2022/08/26 23:03:07;;;;;;;20.30;17.85;;;26.20;65.40;;;;;;4744787;55;21047;-31
2022/08/26 23:08:08;;;;;;;20.05;17.95;;;26.20;65.40;;;;;;4750959;55;21008;-27
2022/08/26 23:13:10;;;;;;;20.27;18.23;;;26.20;65.40;;;;;;4736287;59;21127;-27
2022/08/26 23:18:14;;;;;;;20.77;18.80;;;26.20;65.40;;;;;;4736798;55;21047;-27
2022/08/26 23:23:15;;;;;;;20.25;18.20;;;26.20;65.40;;;;;;4744945;55;20995;-31
2022/08/26 23:28:16;;;;;;;19.37;17.40;;;26.20;66.10;;;;;;4759483;55;21059;-26
2022/08/26 23:33:17;;;;;;;20.10;18.15;;;26.20;65.40;;;;;;4753868;55;21126;-31
2022/08/26 23:38:17;;;;;;;21.45;19.20;;;26.20;65.40;;;;;;4752316;55;20995;-27
2022/08/26 23:43:18;;;;;;;20.85;17.95;;;26.20;65.40;;;;;;4755589;55;21297;-28
2022/08/26 23:48:19;;;;;;;20.00;18.00;;;26.20;65.40;;;;;;4753646;55;21387;-35
2022/08/26 23:53:21;;;;;;;20.98;18.60;;;26.20;65.50;;;;;;4756258;55;21024;-32
2022/08/26 23:58:22;;;;;;;19.42;17.52;;;26.20;65.40;;;;;;4810730;55;21063;-35
